sensor_id;sensor_type;location;lat;lon;timestamp;P1;durP1;ratioP1;P2;durP2;ratioP2
69596;SDS011;56802;51.184;-115.558;2022-08-20T00:00:31;11.30;;;8.40;;
69596;SDS011;56802;51.184;-115.558;2022-08-20T00:03:30;11.50;;;8.20;;
69596;SDS011;56802;51.184;-115.558;2022-08-20T00:06:21;13.80;;;7.90;;
69596;SDS011;56802;51.184;-115.558;2022-08-20T00:08:51;17.70;;;9.30;;
69596;SDS011;56802;51.184;-115.558;2022-08-20T00:11:24;16.20;;;8.20;;
69596;SDS011;56802;51.184;-115.558;2022-08-20T00:14:00;11.90;;;7.90;;
69596;SDS011;56802;51.184;-115.558;2022-08-20T00:16:36;12.70;;;8.00;;
69596;SDS011;56802;51.184;-115.558;2022-08-20T00:19:08;11.00;;;8.10;;
69596;SDS011;56802;51.184;-115.558;2022-08-20T00:21:38;11.90;;;8.90;;
69596;SDS011;56802;51.184;-115.558;2022-08-20T00:24:08;13.40;;;8.50;;
69596;SDS011;56802;51.184;-115.558;2022-08-20T00:26:37;11.40;;;7.50;;
69596;SDS011;56802;51.184;-115.558;2022-08-20T00:29:19;11.40;;;7.80;;
69596;SDS011;56802;51.184;-115.558;2022-08-20T00:31:49;11.40;;;8.50;;
69596;SDS011;56802;51.184;-115.558;2022-08-20T00:34:19;11.70;;;7.90;;
69596;SDS011;56802;51.184;-115.558;2022-08-20T00:36:48;11.40;;;8.40;;
69596;SDS011;56802;51.184;-115.558;2022-08-20T00:39:17;12.50;;;8.80;;
69596;SDS011;56802;51.184;-115.558;2022-08-20T00:41:48;10.20;;;7.70;;
69596;SDS011;56802;51.184;-115.558;2022-08-20T00:44:20;10.80;;;8.20;;
69596;SDS011;56802;51.184;-115.558;2022-08-20T00:46:51;12.20;;;8.90;;
69596;SDS011;56802;51.184;-115.558;2022-08-20T00:49:27;12.30;;;8.20;;
69596;SDS011;56802;51.184;-115.558;2022-08-20T00:52:09;11.70;;;8.10;;
69596;SDS011;56802;51.184;-115.558;2022-08-20T00:54:52;10.30;;;7.50;;
69596;SDS011;56802;51.184;-115.558;2022-08-20T00:57:29;10.80;;;8.30;;
69596;SDS011;56802;51.184;-115.558;2022-08-20T01:00:28;11.90;;;7.90;;
69596;SDS011;56802;51.184;-115.558;2022-08-20T01:03:01;11.30;;;7.90;;
69596;SDS011;56802;51.184;-115.558;2022-08-20T01:05:34;11.50;;;7.50;;
69596;SDS011;56802;51.184;-115.558;2022-08-20T01:08:05;11.50;;;8.10;;
69596;SDS011;56802;51.184;-115.558;2022-08-20T01:10:38;11.80;;;7.70;;
69596;SDS011;56802;51.184;-115.558;2022-08-20T01:13:12;16.40;;;7.60;;
69596;SDS011;56802;51.184;-115.558;2022-08-20T01:15:46;10.90;;;7.60;;
69596;SDS011;56802;51.184;-115.558;2022-08-20T01:18:22;12.20;;;8.00;;
69596;SDS011;56802;51.184;-115.558;2022-08-20T01:21:02;12.20;;;8.00;;
69596;SDS011;56802;51.184;-115.558;2022-08-20T01:26:36;11.30;;;7.90;;
69596;SDS011;56802;51.184;-115.558;2022-08-20T01:29:18;11.10;;;7.90;;
69596;SDS011;56802;51.184;-115.558;2022-08-20T01:31:51;11.40;;;7.70;;
69596;SDS011;56802;51.184;-115.558;2022-08-20T01:34:21;12.60;;;7.70;;
69596;SDS011;56802;51.184;-115.558;2022-08-20T01:36:52;11.80;;;7.70;;
69596;SDS011;56802;51.184;-115.558;2022-08-20T01:39:30;13.10;;;7.70;;
69596;SDS011;56802;51.184;-115.558;2022-08-20T01:42:11;11.30;;;7.50;;
69596;SDS011;56802;51.184;-115.558;2022-08-20T01:44:57;12.30;;;7.60;;
69596;SDS011;56802;51.184;-115.558;2022-08-20T01:47:31;12.20;;;7.80;;
69596;SDS011;56802;51.184;-115.558;2022-08-20T01:50:16;11.30;;;7.80;;
69596;SDS011;56802;51.184;-115.558;2022-08-20T01:53:13;14.00;;;7.70;;
69596;SDS011;56802;51.184;-115.558;2022-08-20T01:55:48;14.60;;;8.60;;
69596;SDS011;56802;51.184;-115.558;2022-08-20T01:58:17;11.80;;;8.50;;
69596;SDS011;56802;51.184;-115.558;2022-08-20T02:00:47;12.20;;;8.10;;
69596;SDS011;56802;51.184;-115.558;2022-08-20T02:03:16;15.60;;;9.00;;
69596;SDS011;56802;51.184;-115.558;2022-08-20T02:05:45;15.60;;;8.40;;
69596;SDS011;56802;51.184;-115.558;2022-08-20T02:08:14;12.50;;;7.90;;
69596;SDS011;56802;51.184;-115.558;2022-08-20T02:10:44;16.60;;;7.70;;
69596;SDS011;56802;51.184;-115.558;2022-08-20T02:13:14;13.20;;;7.40;;
69596;SDS011;56802;51.184;-115.558;2022-08-20T02:15:44;16.30;;;7.40;;
69596;SDS011;56802;51.184;-115.558;2022-08-20T02:18:14;13.80;;;7.80;;
69596;SDS011;56802;51.184;-115.558;2022-08-20T02:20:45;21.70;;;8.70;;
69596;SDS011;56802;51.184;-115.558;2022-08-20T02:23:18;23.40;;;9.20;;
69596;SDS011;56802;51.184;-115.558;2022-08-20T02:25:47;12.90;;;7.80;;
69596;SDS011;56802;51.184;-115.558;2022-08-20T02:28:18;11.30;;;7.70;;
69596;SDS011;56802;51.184;-115.558;2022-08-20T02:30:51;14.10;;;7.50;;
69596;SDS011;56802;51.184;-115.558;2022-08-20T02:33:22;14.20;;;8.60;;
69596;SDS011;56802;51.184;-115.558;2022-08-20T02:35:52;12.60;;;8.80;;
69596;SDS011;56802;51.184;-115.558;2022-08-20T02:38:31;13.50;;;9.40;;
69596;SDS011;56802;51.184;-115.558;2022-08-20T02:41:02;14.50;;;10.00;;
69596;SDS011;56802;51.184;-115.558;2022-08-20T02:43:31;16.50;;;11.20;;
69596;SDS011;56802;51.184;-115.558;2022-08-20T02:46:00;15.20;;;10.30;;
69596;SDS011;56802;51.184;-115.558;2022-08-20T02:48:30;15.60;;;10.70;;
69596;SDS011;56802;51.184;-115.558;2022-08-20T02:51:04;14.30;;;9.40;;
69596;SDS011;56802;51.184;-115.558;2022-08-20T02:53:37;14.90;;;10.00;;
69596;SDS011;56802;51.184;-115.558;2022-08-20T02:56:10;14.70;;;10.00;;
69596;SDS011;56802;51.184;-115.558;2022-08-20T02:58:40;14.80;;;10.70;;
69596;SDS011;56802;51.184;-115.558;2022-08-20T03:01:13;16.10;;;10.70;;
69596;SDS011;56802;51.184;-115.558;2022-08-20T03:03:45;15.30;;;10.00;;
69596;SDS011;56802;51.184;-115.558;2022-08-20T03:06:14;16.60;;;10.20;;
69596;SDS011;56802;51.184;-115.558;2022-08-20T03:08:44;16.60;;;10.20;;
69596;SDS011;56802;51.184;-115.558;2022-08-20T03:11:13;16.10;;;10.30;;
69596;SDS011;56802;51.184;-115.558;2022-08-20T03:13:42;19.00;;;11.10;;
69596;SDS011;56802;51.184;-115.558;2022-08-20T03:16:12;14.40;;;10.60;;
69596;SDS011;56802;51.184;-115.558;2022-08-20T03:18:44;14.80;;;10.30;;
69596;SDS011;56802;51.184;-115.558;2022-08-20T03:21:18;16.70;;;10.90;;
69596;SDS011;56802;51.184;-115.558;2022-08-20T03:23:48;18.10;;;11.00;;
69596;SDS011;56802;51.184;-115.558;2022-08-20T03:26:17;16.90;;;10.90;;
69596;SDS011;56802;51.184;-115.558;2022-08-20T03:28:46;15.30;;;10.80;;
69596;SDS011;56802;51.184;-115.558;2022-08-20T03:31:16;15.30;;;10.30;;
69596;SDS011;56802;51.184;-115.558;2022-08-20T03:33:45;16.10;;;10.30;;
69596;SDS011;56802;51.184;-115.558;2022-08-20T03:36:21;13.80;;;10.50;;
69596;SDS011;56802;51.184;-115.558;2022-08-20T03:38:57;14.90;;;9.90;;
69596;SDS011;56802;51.184;-115.558;2022-08-20T03:41:28;14.80;;;9.70;;
69596;SDS011;56802;51.184;-115.558;2022-08-20T03:43:59;13.30;;;9.30;;
69596;SDS011;56802;51.184;-115.558;2022-08-20T03:46:28;16.30;;;9.30;;
69596;SDS011;56802;51.184;-115.558;2022-08-20T03:48:57;14.50;;;9.40;;
69596;SDS011;56802;51.184;-115.558;2022-08-20T03:51:31;13.60;;;9.40;;
69596;SDS011;56802;51.184;-115.558;2022-08-20T03:54:23;15.50;;;10.00;;
69596;SDS011;56802;51.184;-115.558;2022-08-20T03:56:59;14.30;;;9.60;;
69596;SDS011;56802;51.184;-115.558;2022-08-20T03:59:40;14.00;;;10.10;;
69596;SDS011;56802;51.184;-115.558;2022-08-20T04:02:16;14.50;;;9.50;;
69596;SDS011;56802;51.184;-115.558;2022-08-20T04:04:45;14.40;;;10.10;;
69596;SDS011;56802;51.184;-115.558;2022-08-20T04:07:19;15.40;;;10.80;;
69596;SDS011;56802;51.184;-115.558;2022-08-20T04:09:54;15.70;;;10.30;;
69596;SDS011;56802;51.184;-115.558;2022-08-20T04:12:24;17.00;;;9.90;;
69596;SDS011;56802;51.184;-115.558;2022-08-20T04:14:54;16.90;;;10.90;;
69596;SDS011;56802;51.184;-115.558;2022-08-20T04:17:24;19.10;;;11.80;;
69596;SDS011;56802;51.184;-115.558;2022-08-20T04:19:54;18.20;;;11.00;;
69596;SDS011;56802;51.184;-115.558;2022-08-20T04:22:23;19.40;;;11.90;;
69596;SDS011;56802;51.184;-115.558;2022-08-20T04:24:53;21.20;;;12.50;;
69596;SDS011;56802;51.184;-115.558;2022-08-20T04:27:22;19.80;;;11.30;;
69596;SDS011;56802;51.184;-115.558;2022-08-20T04:29:51;17.40;;;10.90;;
69596;SDS011;56802;51.184;-115.558;2022-08-20T04:32:24;16.80;;;11.10;;
69596;SDS011;56802;51.184;-115.558;2022-08-20T04:34:53;17.30;;;10.60;;
69596;SDS011;56802;51.184;-115.558;2022-08-20T04:37:23;21.50;;;12.60;;
69596;SDS011;56802;51.184;-115.558;2022-08-20T04:39:52;20.70;;;12.00;;
69596;SDS011;56802;51.184;-115.558;2022-08-20T04:42:40;19.90;;;10.70;;
69596;SDS011;56802;51.184;-115.558;2022-08-20T04:45:10;17.00;;;10.70;;
69596;SDS011;56802;51.184;-115.558;2022-08-20T04:47:39;15.10;;;10.50;;
69596;SDS011;56802;51.184;-115.558;2022-08-20T04:50:11;16.30;;;10.20;;
69596;SDS011;56802;51.184;-115.558;2022-08-20T04:52:40;15.10;;;10.40;;
69596;SDS011;56802;51.184;-115.558;2022-08-20T04:55:10;14.30;;;10.70;;
69596;SDS011;56802;51.184;-115.558;2022-08-20T04:57:39;14.60;;;10.40;;
69596;SDS011;56802;51.184;-115.558;2022-08-20T05:00:15;14.50;;;11.30;;
69596;SDS011;56802;51.184;-115.558;2022-08-20T05:02:45;16.60;;;10.80;;
69596;SDS011;56802;51.184;-115.558;2022-08-20T05:05:14;14.50;;;10.80;;
69596;SDS011;56802;51.184;-115.558;2022-08-20T05:07:44;15.10;;;10.50;;
69596;SDS011;56802;51.184;-115.558;2022-08-20T05:10:16;13.80;;;10.10;;
69596;SDS011;56802;51.184;-115.558;2022-08-20T05:12:46;15.60;;;10.00;;
69596;SDS011;56802;51.184;-115.558;2022-08-20T05:15:23;15.20;;;9.90;;
69596;SDS011;56802;51.184;-115.558;2022-08-20T05:17:55;15.70;;;10.70;;
69596;SDS011;56802;51.184;-115.558;2022-08-20T05:20:36;16.90;;;9.80;;
69596;SDS011;56802;51.184;-115.558;2022-08-20T05:23:10;15.50;;;10.80;;
69596;SDS011;56802;51.184;-115.558;2022-08-20T05:25:43;15.40;;;9.80;;
69596;SDS011;56802;51.184;-115.558;2022-08-20T05:28:23;16.20;;;11.10;;
69596;SDS011;56802;51.184;-115.558;2022-08-20T05:31:19;13.70;;;9.50;;
69596;SDS011;56802;51.184;-115.558;2022-08-20T05:33:57;15.20;;;9.50;;
69596;SDS011;56802;51.184;-115.558;2022-08-20T05:36:26;14.60;;;8.90;;
69596;SDS011;56802;51.184;-115.558;2022-08-20T05:38:56;17.40;;;9.90;;
69596;SDS011;56802;51.184;-115.558;2022-08-20T05:41:26;13.30;;;8.90;;
69596;SDS011;56802;51.184;-115.558;2022-08-20T05:43:59;12.60;;;9.40;;
69596;SDS011;56802;51.184;-115.558;2022-08-20T05:46:29;13.60;;;9.00;;
69596;SDS011;56802;51.184;-115.558;2022-08-20T05:48:59;12.70;;;8.60;;
69596;SDS011;56802;51.184;-115.558;2022-08-20T05:51:29;12.50;;;8.50;;
69596;SDS011;56802;51.184;-115.558;2022-08-20T05:53:58;12.50;;;8.90;;
69596;SDS011;56802;51.184;-115.558;2022-08-20T05:56:28;13.00;;;8.70;;
69596;SDS011;56802;51.184;-115.558;2022-08-20T05:58:59;14.00;;;8.40;;
69596;SDS011;56802;51.184;-115.558;2022-08-20T06:01:33;15.40;;;9.40;;
69596;SDS011;56802;51.184;-115.558;2022-08-20T06:04:07;15.00;;;9.00;;
69596;SDS011;56802;51.184;-115.558;2022-08-20T06:07:05;14.50;;;8.90;;
69596;SDS011;56802;51.184;-115.558;2022-08-20T06:09:35;14.00;;;9.50;;
69596;SDS011;56802;51.184;-115.558;2022-08-20T06:12:09;16.00;;;9.60;;
69596;SDS011;56802;51.184;-115.558;2022-08-20T06:14:38;14.80;;;9.80;;
69596;SDS011;56802;51.184;-115.558;2022-08-20T06:17:11;13.10;;;8.40;;
69596;SDS011;56802;51.184;-115.558;2022-08-20T06:19:44;12.50;;;8.70;;
69596;SDS011;56802;51.184;-115.558;2022-08-20T06:22:16;13.90;;;9.20;;
69596;SDS011;56802;51.184;-115.558;2022-08-20T06:24:52;17.50;;;10.30;;
69596;SDS011;56802;51.184;-115.558;2022-08-20T06:27:23;15.60;;;9.30;;
69596;SDS011;56802;51.184;-115.558;2022-08-20T06:29:53;14.10;;;9.30;;
69596;SDS011;56802;51.184;-115.558;2022-08-20T06:32:23;13.80;;;9.30;;
69596;SDS011;56802;51.184;-115.558;2022-08-20T06:35:04;13.40;;;9.00;;
69596;SDS011;56802;51.184;-115.558;2022-08-20T06:37:37;14.00;;;9.50;;
69596;SDS011;56802;51.184;-115.558;2022-08-20T06:40:15;14.40;;;9.20;;
69596;SDS011;56802;51.184;-115.558;2022-08-20T06:42:46;17.00;;;9.20;;
69596;SDS011;56802;51.184;-115.558;2022-08-20T06:45:20;15.10;;;8.90;;
69596;SDS011;56802;51.184;-115.558;2022-08-20T06:47:59;16.70;;;9.60;;
69596;SDS011;56802;51.184;-115.558;2022-08-20T06:50:35;15.30;;;8.90;;
69596;SDS011;56802;51.184;-115.558;2022-08-20T06:53:16;13.20;;;9.10;;
69596;SDS011;56802;51.184;-115.558;2022-08-20T06:55:53;13.50;;;8.70;;
69596;SDS011;56802;51.184;-115.558;2022-08-20T06:58:25;12.40;;;8.80;;
69596;SDS011;56802;51.184;-115.558;2022-08-20T07:01:08;14.60;;;9.40;;
69596;SDS011;56802;51.184;-115.558;2022-08-20T07:03:40;17.70;;;10.30;;
69596;SDS011;56802;51.184;-115.558;2022-08-20T07:06:25;18.90;;;10.10;;
69596;SDS011;56802;51.184;-115.558;2022-08-20T07:08:55;16.50;;;9.20;;
69596;SDS011;56802;51.184;-115.558;2022-08-20T07:11:25;14.70;;;9.20;;
69596;SDS011;56802;51.184;-115.558;2022-08-20T07:13:58;14.80;;;9.30;;
69596;SDS011;56802;51.184;-115.558;2022-08-20T07:16:28;14.70;;;8.50;;
69596;SDS011;56802;51.184;-115.558;2022-08-20T07:18:57;14.80;;;8.90;;
69596;SDS011;56802;51.184;-115.558;2022-08-20T07:21:30;14.90;;;9.40;;
69596;SDS011;56802;51.184;-115.558;2022-08-20T07:23:59;14.90;;;9.20;;
69596;SDS011;56802;51.184;-115.558;2022-08-20T07:26:29;15.80;;;8.80;;
69596;SDS011;56802;51.184;-115.558;2022-08-20T07:28:59;12.30;;;9.00;;
69596;SDS011;56802;51.184;-115.558;2022-08-20T07:31:28;13.60;;;9.10;;
69596;SDS011;56802;51.184;-115.558;2022-08-20T07:34:15;13.00;;;9.10;;
69596;SDS011;56802;51.184;-115.558;2022-08-20T07:36:45;14.90;;;9.40;;
69596;SDS011;56802;51.184;-115.558;2022-08-20T07:39:17;16.30;;;9.30;;
69596;SDS011;56802;51.184;-115.558;2022-08-20T07:41:48;14.60;;;8.60;;
69596;SDS011;56802;51.184;-115.558;2022-08-20T07:44:30;12.90;;;8.70;;
69596;SDS011;56802;51.184;-115.558;2022-08-20T07:46:59;15.60;;;9.70;;
69596;SDS011;56802;51.184;-115.558;2022-08-20T07:49:29;15.00;;;9.60;;
69596;SDS011;56802;51.184;-115.558;2022-08-20T07:51:58;13.10;;;9.10;;
69596;SDS011;56802;51.184;-115.558;2022-08-20T07:54:27;14.60;;;8.80;;
69596;SDS011;56802;51.184;-115.558;2022-08-20T07:57:01;14.50;;;8.90;;
69596;SDS011;56802;51.184;-115.558;2022-08-20T07:59:31;11.60;;;8.20;;
69596;SDS011;56802;51.184;-115.558;2022-08-20T08:02:00;13.00;;;8.60;;
69596;SDS011;56802;51.184;-115.558;2022-08-20T08:04:30;14.50;;;9.30;;
69596;SDS011;56802;51.184;-115.558;2022-08-20T08:06:59;13.80;;;9.20;;
69596;SDS011;56802;51.184;-115.558;2022-08-20T08:09:28;15.50;;;10.10;;
69596;SDS011;56802;51.184;-115.558;2022-08-20T08:12:00;15.50;;;8.80;;
69596;SDS011;56802;51.184;-115.558;2022-08-20T08:14:33;12.60;;;8.50;;
69596;SDS011;56802;51.184;-115.558;2022-08-20T08:17:03;15.90;;;9.30;;
69596;SDS011;56802;51.184;-115.558;2022-08-20T08:19:38;15.40;;;8.90;;
69596;SDS011;56802;51.184;-115.558;2022-08-20T08:22:13;15.60;;;9.20;;
69596;SDS011;56802;51.184;-115.558;2022-08-20T08:24:45;13.20;;;9.20;;
69596;SDS011;56802;51.184;-115.558;2022-08-20T08:27:23;15.00;;;8.90;;
69596;SDS011;56802;51.184;-115.558;2022-08-20T08:29:53;13.60;;;9.20;;
69596;SDS011;56802;51.184;-115.558;2022-08-20T08:32:22;12.10;;;8.50;;
69596;SDS011;56802;51.184;-115.558;2022-08-20T08:34:52;12.30;;;9.00;;
69596;SDS011;56802;51.184;-115.558;2022-08-20T08:37:21;13.50;;;9.10;;
69596;SDS011;56802;51.184;-115.558;2022-08-20T08:39:57;14.00;;;8.80;;
69596;SDS011;56802;51.184;-115.558;2022-08-20T08:42:36;14.30;;;9.10;;
69596;SDS011;56802;51.184;-115.558;2022-08-20T08:45:13;13.90;;;9.00;;
69596;SDS011;56802;51.184;-115.558;2022-08-20T08:47:44;13.60;;;9.00;;
69596;SDS011;56802;51.184;-115.558;2022-08-20T08:50:27;13.50;;;8.90;;
69596;SDS011;56802;51.184;-115.558;2022-08-20T08:53:41;13.20;;;8.40;;
69596;SDS011;56802;51.184;-115.558;2022-08-20T08:56:28;12.20;;;8.80;;
69596;SDS011;56802;51.184;-115.558;2022-08-20T08:59:02;12.90;;;8.30;;
69596;SDS011;56802;51.184;-115.558;2022-08-20T09:01:38;13.10;;;8.40;;
69596;SDS011;56802;51.184;-115.558;2022-08-20T09:04:30;11.20;;;7.60;;
69596;SDS011;56802;51.184;-115.558;2022-08-20T09:07:04;11.40;;;7.80;;
69596;SDS011;56802;51.184;-115.558;2022-08-20T09:09:42;13.30;;;7.90;;
69596;SDS011;56802;51.184;-115.558;2022-08-20T09:12:16;12.00;;;8.20;;
69596;SDS011;56802;51.184;-115.558;2022-08-20T09:14:48;12.50;;;8.30;;
69596;SDS011;56802;51.184;-115.558;2022-08-20T09:17:21;11.70;;;8.20;;
69596;SDS011;56802;51.184;-115.558;2022-08-20T09:19:50;12.00;;;8.50;;
69596;SDS011;56802;51.184;-115.558;2022-08-20T09:22:22;12.80;;;8.40;;
69596;SDS011;56802;51.184;-115.558;2022-08-20T09:24:55;12.70;;;8.30;;
69596;SDS011;56802;51.184;-115.558;2022-08-20T09:27:24;12.60;;;8.40;;
69596;SDS011;56802;51.184;-115.558;2022-08-20T09:29:54;13.70;;;8.10;;
69596;SDS011;56802;51.184;-115.558;2022-08-20T09:32:24;13.40;;;8.90;;
69596;SDS011;56802;51.184;-115.558;2022-08-20T09:34:54;12.00;;;8.20;;
69596;SDS011;56802;51.184;-115.558;2022-08-20T09:37:26;12.90;;;8.20;;
69596;SDS011;56802;51.184;-115.558;2022-08-20T09:40:05;12.30;;;8.50;;
69596;SDS011;56802;51.184;-115.558;2022-08-20T09:42:37;12.70;;;8.30;;
69596;SDS011;56802;51.184;-115.558;2022-08-20T09:45:09;11.60;;;7.90;;
69596;SDS011;56802;51.184;-115.558;2022-08-20T09:47:40;13.50;;;8.50;;
69596;SDS011;56802;51.184;-115.558;2022-08-20T09:50:24;13.70;;;9.20;;
69596;SDS011;56802;51.184;-115.558;2022-08-20T09:52:57;13.80;;;8.80;;
69596;SDS011;56802;51.184;-115.558;2022-08-20T09:55:34;13.20;;;8.70;;
69596;SDS011;56802;51.184;-115.558;2022-08-20T10:01:02;12.40;;;8.60;;
69596;SDS011;56802;51.184;-115.558;2022-08-20T10:03:41;12.30;;;7.90;;
69596;SDS011;56802;51.184;-115.558;2022-08-20T10:06:11;15.00;;;8.00;;
69596;SDS011;56802;51.184;-115.558;2022-08-20T10:08:42;11.40;;;8.10;;
69596;SDS011;56802;51.184;-115.558;2022-08-20T10:11:11;12.70;;;8.20;;
69596;SDS011;56802;51.184;-115.558;2022-08-20T10:13:41;13.90;;;8.20;;
69596;SDS011;56802;51.184;-115.558;2022-08-20T10:16:10;12.10;;;8.40;;
69596;SDS011;56802;51.184;-115.558;2022-08-20T10:18:39;12.50;;;8.60;;
69596;SDS011;56802;51.184;-115.558;2022-08-20T10:21:10;13.30;;;8.20;;
69596;SDS011;56802;51.184;-115.558;2022-08-20T10:23:40;13.50;;;8.20;;
69596;SDS011;56802;51.184;-115.558;2022-08-20T10:26:11;11.40;;;6.90;;
69596;SDS011;56802;51.184;-115.558;2022-08-20T10:28:43;14.10;;;7.50;;
69596;SDS011;56802;51.184;-115.558;2022-08-20T10:31:14;12.80;;;7.50;;
69596;SDS011;56802;51.184;-115.558;2022-08-20T10:33:43;13.10;;;7.50;;
69596;SDS011;56802;51.184;-115.558;2022-08-20T10:36:16;13.80;;;7.50;;
69596;SDS011;56802;51.184;-115.558;2022-08-20T10:38:45;13.80;;;7.80;;
69596;SDS011;56802;51.184;-115.558;2022-08-20T10:41:16;13.60;;;8.00;;
69596;SDS011;56802;51.184;-115.558;2022-08-20T10:43:45;12.30;;;8.30;;
69596;SDS011;56802;51.184;-115.558;2022-08-20T10:46:15;11.50;;;7.80;;
69596;SDS011;56802;51.184;-115.558;2022-08-20T10:48:45;12.10;;;7.80;;
69596;SDS011;56802;51.184;-115.558;2022-08-20T10:51:14;12.20;;;8.10;;
69596;SDS011;56802;51.184;-115.558;2022-08-20T10:53:43;10.70;;;7.40;;
69596;SDS011;56802;51.184;-115.558;2022-08-20T10:56:12;12.00;;;7.70;;
69596;SDS011;56802;51.184;-115.558;2022-08-20T10:58:42;10.20;;;6.70;;
69596;SDS011;56802;51.184;-115.558;2022-08-20T11:01:11;10.50;;;6.60;;
69596;SDS011;56802;51.184;-115.558;2022-08-20T11:03:57;9.40;;;6.00;;
69596;SDS011;56802;51.184;-115.558;2022-08-20T11:06:26;11.90;;;7.00;;
69596;SDS011;56802;51.184;-115.558;2022-08-20T11:08:56;10.10;;;6.60;;
69596;SDS011;56802;51.184;-115.558;2022-08-20T11:11:25;9.70;;;6.50;;
69596;SDS011;56802;51.184;-115.558;2022-08-20T11:13:54;11.00;;;7.20;;
69596;SDS011;56802;51.184;-115.558;2022-08-20T11:16:28;10.10;;;6.50;;
69596;SDS011;56802;51.184;-115.558;2022-08-20T11:18:57;11.50;;;6.70;;
69596;SDS011;56802;51.184;-115.558;2022-08-20T11:21:27;10.10;;;6.60;;
69596;SDS011;56802;51.184;-115.558;2022-08-20T11:23:56;10.30;;;6.60;;
69596;SDS011;56802;51.184;-115.558;2022-08-20T11:26:29;10.10;;;6.60;;
69596;SDS011;56802;51.184;-115.558;2022-08-20T11:28:58;11.00;;;7.00;;
69596;SDS011;56802;51.184;-115.558;2022-08-20T11:31:28;11.80;;;7.90;;
69596;SDS011;56802;51.184;-115.558;2022-08-20T11:33:57;10.00;;;6.50;;
69596;SDS011;56802;51.184;-115.558;2022-08-20T11:36:27;9.80;;;6.50;;
69596;SDS011;56802;51.184;-115.558;2022-08-20T11:38:56;10.90;;;6.90;;
69596;SDS011;56802;51.184;-115.558;2022-08-20T11:41:26;11.60;;;7.40;;
69596;SDS011;56802;51.184;-115.558;2022-08-20T11:43:55;12.40;;;7.70;;
69596;SDS011;56802;51.184;-115.558;2022-08-20T11:46:44;10.20;;;7.00;;
69596;SDS011;56802;51.184;-115.558;2022-08-20T11:49:14;10.30;;;6.90;;
69596;SDS011;56802;51.184;-115.558;2022-08-20T11:51:43;11.50;;;7.50;;
69596;SDS011;56802;51.184;-115.558;2022-08-20T11:54:16;10.20;;;7.20;;
69596;SDS011;56802;51.184;-115.558;2022-08-20T11:56:47;11.90;;;7.90;;
69596;SDS011;56802;51.184;-115.558;2022-08-20T11:59:17;11.30;;;7.50;;
69596;SDS011;56802;51.184;-115.558;2022-08-20T12:01:46;12.40;;;8.20;;
69596;SDS011;56802;51.184;-115.558;2022-08-20T12:04:29;12.10;;;7.90;;
69596;SDS011;56802;51.184;-115.558;2022-08-20T12:07:13;12.50;;;7.60;;
69596;SDS011;56802;51.184;-115.558;2022-08-20T12:09:45;11.80;;;7.30;;
69596;SDS011;56802;51.184;-115.558;2022-08-20T12:12:18;11.30;;;7.80;;
69596;SDS011;56802;51.184;-115.558;2022-08-20T12:14:53;12.00;;;7.00;;
69596;SDS011;56802;51.184;-115.558;2022-08-20T12:17:26;11.50;;;7.20;;
69596;SDS011;56802;51.184;-115.558;2022-08-20T12:19:59;11.30;;;7.50;;
69596;SDS011;56802;51.184;-115.558;2022-08-20T12:22:30;12.10;;;7.40;;
69596;SDS011;56802;51.184;-115.558;2022-08-20T12:25:00;10.40;;;6.80;;
69596;SDS011;56802;51.184;-115.558;2022-08-20T12:27:30;10.00;;;7.00;;
69596;SDS011;56802;51.184;-115.558;2022-08-20T12:30:05;10.30;;;7.10;;
69596;SDS011;56802;51.184;-115.558;2022-08-20T12:32:37;11.40;;;7.00;;
69596;SDS011;56802;51.184;-115.558;2022-08-20T12:35:08;11.70;;;7.40;;
69596;SDS011;56802;51.184;-115.558;2022-08-20T12:37:39;10.90;;;7.20;;
69596;SDS011;56802;51.184;-115.558;2022-08-20T12:40:15;10.60;;;7.60;;
69596;SDS011;56802;51.184;-115.558;2022-08-20T12:43:02;10.00;;;7.00;;
69596;SDS011;56802;51.184;-115.558;2022-08-20T12:45:34;11.10;;;7.00;;
69596;SDS011;56802;51.184;-115.558;2022-08-20T12:48:09;10.10;;;6.70;;
69596;SDS011;56802;51.184;-115.558;2022-08-20T12:50:41;11.70;;;7.30;;
69596;SDS011;56802;51.184;-115.558;2022-08-20T12:53:13;11.50;;;8.50;;
69596;SDS011;56802;51.184;-115.558;2022-08-20T12:55:42;11.90;;;7.70;;
69596;SDS011;56802;51.184;-115.558;2022-08-20T12:58:12;12.80;;;7.50;;
69596;SDS011;56802;51.184;-115.558;2022-08-20T13:00:43;10.40;;;7.70;;
69596;SDS011;56802;51.184;-115.558;2022-08-20T13:03:18;12.10;;;7.70;;
69596;SDS011;56802;51.184;-115.558;2022-08-20T13:05:49;11.30;;;7.90;;
69596;SDS011;56802;51.184;-115.558;2022-08-20T13:08:18;11.80;;;7.60;;
69596;SDS011;56802;51.184;-115.558;2022-08-20T13:10:48;10.80;;;8.00;;
69596;SDS011;56802;51.184;-115.558;2022-08-20T13:13:17;11.90;;;7.60;;
69596;SDS011;56802;51.184;-115.558;2022-08-20T13:15:48;13.40;;;8.20;;
69596;SDS011;56802;51.184;-115.558;2022-08-20T13:18:19;11.60;;;7.40;;
69596;SDS011;56802;51.184;-115.558;2022-08-20T13:20:48;10.90;;;7.60;;
69596;SDS011;56802;51.184;-115.558;2022-08-20T13:23:18;12.40;;;7.80;;
69596;SDS011;56802;51.184;-115.558;2022-08-20T13:25:47;11.80;;;7.90;;
69596;SDS011;56802;51.184;-115.558;2022-08-20T13:28:16;12.20;;;7.80;;
69596;SDS011;56802;51.184;-115.558;2022-08-20T13:30:46;13.00;;;8.10;;
69596;SDS011;56802;51.184;-115.558;2022-08-20T13:33:15;11.70;;;7.30;;
69596;SDS011;56802;51.184;-115.558;2022-08-20T13:35:44;12.00;;;7.40;;
69596;SDS011;56802;51.184;-115.558;2022-08-20T13:38:14;11.60;;;7.60;;
69596;SDS011;56802;51.184;-115.558;2022-08-20T13:40:43;12.30;;;8.10;;
69596;SDS011;56802;51.184;-115.558;2022-08-20T13:43:15;12.00;;;8.10;;
69596;SDS011;56802;51.184;-115.558;2022-08-20T13:45:44;12.30;;;7.80;;
69596;SDS011;56802;51.184;-115.558;2022-08-20T13:48:14;11.70;;;7.70;;
69596;SDS011;56802;51.184;-115.558;2022-08-20T13:50:43;14.60;;;9.30;;
69596;SDS011;56802;51.184;-115.558;2022-08-20T13:53:14;15.30;;;8.70;;
69596;SDS011;56802;51.184;-115.558;2022-08-20T13:55:44;14.20;;;9.00;;
69596;SDS011;56802;51.184;-115.558;2022-08-20T13:58:13;14.50;;;9.40;;
69596;SDS011;56802;51.184;-115.558;2022-08-20T14:00:45;13.50;;;8.80;;
69596;SDS011;56802;51.184;-115.558;2022-08-20T14:03:14;13.30;;;8.80;;
69596;SDS011;56802;51.184;-115.558;2022-08-20T14:05:51;12.80;;;8.80;;
69596;SDS011;56802;51.184;-115.558;2022-08-20T14:08:22;13.20;;;8.90;;
69596;SDS011;56802;51.184;-115.558;2022-08-20T14:10:52;13.60;;;8.20;;
69596;SDS011;56802;51.184;-115.558;2022-08-20T14:13:24;12.60;;;8.80;;
69596;SDS011;56802;51.184;-115.558;2022-08-20T14:15:54;15.40;;;9.10;;
69596;SDS011;56802;51.184;-115.558;2022-08-20T14:18:24;14.10;;;8.90;;
69596;SDS011;56802;51.184;-115.558;2022-08-20T14:20:53;14.00;;;8.60;;
69596;SDS011;56802;51.184;-115.558;2022-08-20T14:23:22;13.40;;;8.60;;
69596;SDS011;56802;51.184;-115.558;2022-08-20T14:25:52;14.50;;;8.60;;
69596;SDS011;56802;51.184;-115.558;2022-08-20T14:28:23;12.70;;;8.60;;
69596;SDS011;56802;51.184;-115.558;2022-08-20T14:30:52;12.00;;;8.00;;